Time;durP1;ratioP1;P1;durP2;ratioP2;P2;SDS_P1;SDS_P2;PMS_P1;PMS_P2;Temp;Humidity;BMP_temperature;BMP_pressure;BME280_temperature;BME280_humidity;BME280_pressure;Samples;Min_cycle;Max_cycle;Signal;HPM_P1;HPM_P2
2023/06/23 00:01:13;;;;;;;25.35;17.35;;;18.40;99.90;;;;;;12392788;28;20052;-39
2023/06/23 00:07:15;;;;;;;20.98;16.55;;;18.40;99.90;;;;;;12416090;28;20513;-38
2023/06/23 00:13:19;;;;;;;18.70;16.30;;;18.40;99.90;;;;;;12419866;28;20046;-39
2023/06/23 00:19:21;;;;;;;22.67;17.65;;;18.40;99.90;;;;;;12399220;28;20077;-39
2023/06/23 00:25:23;;;;;;;24.33;16.80;;;18.20;99.90;;;;;;12407169;28;20053;-41
2023/06/23 00:31:25;;;;;;;20.25;15.32;;;18.00;99.90;;;;;;12413590;28;20451;-39
2023/06/23 00:37:32;;;;;;;20.33;14.68;;;17.90;99.90;;;;;;12410205;28;20042;-38
2023/06/23 00:43:34;;;;;;;19.25;14.43;;;17.90;99.90;;;;;;12418902;28;20609;-38
2023/06/23 00:49:36;;;;;;;14.02;12.57;;;17.80;99.90;;;;;;12417384;28;20446;-39
2023/06/23 00:55:38;;;;;;;17.30;12.45;;;17.60;99.90;;;;;;12405782;28;20184;-39
2023/06/23 01:01:40;;;;;;;12.32;10.10;;;17.60;99.90;;;;;;12425491;28;20371;-39
2023/06/23 01:08:20;;;;;;;13.80;11.82;;;17.40;99.90;;;;;;12402244;28;20473;-40
2023/06/23 01:14:30;;;;;;;12.82;11.02;;;17.30;99.90;;;;;;12412271;28;20494;-39
2023/06/23 01:20:35;;;;;;;16.63;11.68;;;17.00;99.90;;;;;;12403571;28;20064;-39
2023/06/23 01:27:14;;;;;;;14.60;10.50;;;16.90;99.90;;;;;;12413410;28;20042;-40
2023/06/23 01:33:20;;;;;;;14.07;10.90;;;16.70;99.90;;;;;;12397290;28;20078;-39
2023/06/23 01:39:24;;;;;;;12.80;10.25;;;16.60;99.90;;;;;;12418355;28;20053;-40
2023/06/23 01:45:29;;;;;;;13.75;9.20;;;16.60;99.90;;;;;;12430209;28;20038;-40
2023/06/23 01:51:34;;;;;;;11.77;9.05;;;16.40;99.90;;;;;;12415393;28;20053;-40
2023/06/23 01:57:38;;;;;;;13.10;9.48;;;16.40;99.90;;;;;;12412029;28;20042;-40
2023/06/23 02:03:40;;;;;;;;;;;16.40;99.90;;;;;;12397454;28;20419;-39
2023/06/23 02:09:43;;;;;;;11.68;6.20;;;16.30;99.90;;;;;;12414220;28;20361;-40
2023/06/23 02:15:48;;;;;;;7.32;5.40;;;16.30;99.90;;;;;;12401867;28;20557;-40
2023/06/23 02:21:51;;;;;;;;;;;16.30;99.90;;;;;;12396474;28;20046;-40
2023/06/23 02:27:53;;;;;;;3.45;1.70;;;16.30;99.90;;;;;;12388711;28;19921;-41
2023/06/23 02:33:56;;;;;;;2.35;1.40;;;16.30;99.90;;;;;;12404665;28;20589;-38
2023/06/23 02:40:05;;;;;;;4.80;1.42;;;16.20;99.90;;;;;;12395580;28;20483;-38
2023/06/23 02:46:10;;;;;;;2.88;1.67;;;16.10;99.90;;;;;;12422143;28;20444;-40
2023/06/23 02:52:14;;;;;;;2.40;1.63;;;16.20;99.90;;;;;;12417977;28;20105;-39
2023/06/23 02:58:18;;;;;;;5.75;3.22;;;16.10;99.90;;;;;;12400683;28;20077;-39
2023/06/23 03:04:22;;;;;;;9.98;3.85;;;16.00;99.90;;;;;;12405360;28;20387;-39
2023/06/23 03:10:24;;;;;;;8.07;4.15;;;15.90;99.90;;;;;;12395146;28;20085;-40
2023/06/23 03:16:30;;;;;;;11.88;3.78;;;15.80;99.90;;;;;;12413109;28;20540;-38
2023/06/23 03:22:49;;;;;;;9.10;3.58;;;15.70;99.90;;;;;;12417473;28;20050;-39
2023/06/23 03:28:54;;;;;;;6.50;3.58;;;15.70;99.90;;;;;;12396728;28;20532;-39
2023/06/23 03:35:04;;;;;;;8.88;3.50;;;15.70;99.90;;;;;;12402151;28;20054;-39
2023/06/23 03:41:09;;;;;;;4.00;3.05;;;15.70;99.90;;;;;;12429602;28;20046;-38
2023/06/23 03:47:21;;;;;;;7.47;3.47;;;15.60;99.90;;;;;;12401615;28;20073;-39
2023/06/23 03:53:26;;;;;;;5.40;4.05;;;15.60;99.90;;;;;;12416671;28;20415;-39
2023/06/23 03:59:29;;;;;;;6.70;3.92;;;15.60;99.90;;;;;;12412463;28;20050;-39
2023/06/23 04:05:32;;;;;;;5.50;3.70;;;15.60;99.90;;;;;;12395032;28;20502;-39
2023/06/23 04:11:36;;;;;;;6.15;4.25;;;15.60;99.90;;;;;;12417621;28;20050;-38
2023/06/23 04:17:40;;;;;;;6.45;4.80;;;15.70;99.90;;;;;;12411749;28;20046;-39
2023/06/23 04:23:44;;;;;;;6.80;5.00;;;15.70;99.90;;;;;;12416083;28;20049;-40
2023/06/23 04:29:47;;;;;;;6.80;5.77;;;15.60;99.90;;;;;;12403702;28;20085;-39
2023/06/23 04:35:52;;;;;;;8.77;6.32;;;15.60;99.90;;;;;;12439838;28;20204;-39
2023/06/23 04:42:03;;;;;;;8.55;6.60;;;15.60;99.90;;;;;;12421380;28;20136;-38
2023/06/23 04:48:11;;;;;;;11.20;6.82;;;15.60;99.90;;;;;;12419159;28;20486;-41
2023/06/23 04:54:21;;;;;;;13.30;7.13;;;15.60;99.90;;;;;;12403978;28;20038;-40
2023/06/23 05:00:24;;;;;;;10.85;7.18;;;15.50;99.90;;;;;;12406181;28;20046;-39
2023/06/23 05:06:28;;;;;;;10.30;7.07;;;15.50;99.90;;;;;;12422265;28;20101;-39
2023/06/23 05:12:32;;;;;;;10.15;7.13;;;15.60;99.90;;;;;;12402307;28;20399;-40
2023/06/23 05:18:34;;;;;;;12.13;7.33;;;15.50;99.90;;;;;;12424058;28;20042;-38
2023/06/23 05:24:40;;;;;;;9.88;7.07;;;15.50;99.90;;;;;;12413524;28;20510;-38
2023/06/23 05:30:44;;;;;;;10.63;7.65;;;15.50;99.90;;;;;;12405404;28;20049;-41
2023/06/23 05:36:49;;;;;;;9.23;7.15;;;15.60;99.90;;;;;;12413365;28;20047;-38
2023/06/23 05:42:51;;;;;;;12.20;7.68;;;15.60;99.90;;;;;;12415973;28;20120;-39
2023/06/23 05:49:00;;;;;;;12.82;7.05;;;15.60;99.90;;;;;;12410921;28;20053;-40
2023/06/23 05:55:04;;;;;;;10.18;6.90;;;15.60;99.90;;;;;;12403475;28;20046;-39
2023/06/23 06:01:12;;;;;;;8.30;6.38;;;15.70;99.90;;;;;;12403044;28;20049;-39
2023/06/23 06:07:16;;;;;;;10.35;6.32;;;15.60;99.90;;;;;;12397349;28;20054;-40
2023/06/23 06:13:19;;;;;;;7.57;5.40;;;15.70;99.90;;;;;;12398609;28;20052;-39
2023/06/23 06:19:24;;;;;;;8.13;5.10;;;15.60;99.90;;;;;;12395927;28;20132;-40
2023/06/23 06:25:28;;;;;;;8.75;5.45;;;15.50;99.90;;;;;;12403035;28;20053;-39
2023/06/23 06:31:32;;;;;;;8.15;4.47;;;15.40;99.90;;;;;;12396090;28;20061;-40
2023/06/23 06:37:37;;;;;;;7.63;4.65;;;15.40;99.90;;;;;;12406014;28;20455;-38
2023/06/23 06:43:39;;;;;;;6.47;4.90;;;15.40;99.90;;;;;;12411915;28;20578;-39
2023/06/23 06:49:42;;;;;;;9.98;5.28;;;15.30;99.90;;;;;;12408080;28;20073;-40
2023/06/23 06:55:44;;;;;;;7.97;4.80;;;15.40;99.90;;;;;;12410091;28;20037;-39
2023/06/23 07:01:47;;;;;;;8.90;5.63;;;15.40;99.90;;;;;;12406734;28;20042;-39
2023/06/23 07:07:49;;;;;;;7.03;5.20;;;15.50;99.90;;;;;;12405019;28;20054;-39
2023/06/23 07:13:51;;;;;;;6.20;5.00;;;15.50;99.90;;;;;;12392882;28;21125;-40
2023/06/23 07:19:53;;;;;;;8.23;4.32;;;15.50;99.90;;;;;;12397391;28;20062;-40
2023/06/23 07:25:55;;;;;;;5.45;4.07;;;15.40;99.90;;;;;;12391608;28;20050;-39
2023/06/23 07:31:57;;;;;;;6.50;4.10;;;15.50;99.90;;;;;;12402445;28;20521;-40
2023/06/23 07:37:59;;;;;;;7.03;4.15;;;15.60;99.90;;;;;;12409189;28;20144;-39
2023/06/23 07:44:02;;;;;;;7.53;4.47;;;15.50;99.90;;;;;;12403258;28;20058;-39
2023/06/23 07:50:04;;;;;;;7.22;5.18;;;15.60;99.90;;;;;;12404254;28;20189;-39
2023/06/23 07:56:06;;;;;;;7.45;4.32;;;15.60;99.90;;;;;;12414064;28;20590;-39
2023/06/23 08:02:08;;;;;;;6.70;4.38;;;15.60;99.90;;;;;;12394726;28;20047;-38
2023/06/23 08:08:14;;;;;;;8.85;5.40;;;15.80;99.90;;;;;;12412494;28;20050;-39
2023/06/23 08:14:16;;;;;;;8.75;5.38;;;15.70;99.90;;;;;;12409736;28;20070;-39
2023/06/23 08:20:17;;;;;;;8.65;5.38;;;15.80;99.90;;;;;;12412438;28;20042;-39
2023/06/23 08:26:19;;;;;;;8.00;5.53;;;15.90;99.90;;;;;;12417401;28;20183;-40
2023/06/23 08:32:21;;;;;;;11.52;6.80;;;15.90;99.90;;;;;;12407009;28;20076;-38
2023/06/23 08:38:24;;;;;;;10.13;7.18;;;15.80;99.90;;;;;;12412830;28;20042;-39
2023/06/23 08:44:31;;;;;;;10.80;7.00;;;15.90;99.90;;;;;;12426187;28;20136;-39
2023/06/23 08:50:35;;;;;;;12.18;8.15;;;15.90;99.90;;;;;;12422820;28;20492;-40
2023/06/23 08:56:38;;;;;;;13.38;8.50;;;15.90;99.90;;;;;;12394109;28;20042;-39
2023/06/23 09:02:39;;;;;;;12.25;8.93;;;15.90;99.90;;;;;;12407613;28;20069;-39
2023/06/23 09:08:42;;;;;;;13.68;9.30;;;16.00;99.90;;;;;;12406035;28;20050;-40
2023/06/23 09:14:44;;;;;;;15.35;9.48;;;16.00;99.90;;;;;;12422876;28;20133;-40
2023/06/23 09:20:50;;;;;;;14.52;9.25;;;16.00;99.90;;;;;;12416793;28;20046;-40
2023/06/23 09:26:55;;;;;;;15.35;9.63;;;16.00;99.90;;;;;;12384906;28;20061;-40
2023/06/23 09:32:57;;;;;;;13.23;9.90;;;16.10;99.90;;;;;;12392809;28;20053;-39
2023/06/23 09:39:01;;;;;;;12.93;8.65;;;16.10;99.90;;;;;;12399343;28;20070;-39
2023/06/23 09:45:16;;;;;;;13.70;9.63;;;16.10;99.90;;;;;;12412237;28;20041;-39
2023/06/23 09:51:19;;;;;;;12.98;9.35;;;16.10;99.90;;;;;;12400660;28;20057;-40
2023/06/23 09:57:21;;;;;;;17.67;10.63;;;16.20;99.90;;;;;;12386335;28;20038;-39
2023/06/23 10:03:22;;;;;;;17.48;11.45;;;16.30;99.90;;;;;;12406201;28;20522;-40
2023/06/23 10:09:25;;;;;;;17.58;10.30;;;16.40;99.90;;;;;;12403454;28;20407;-39
2023/06/23 10:15:28;;;;;;;15.30;10.25;;;16.40;99.90;;;;;;12397869;28;20047;-41
2023/06/23 10:21:31;;;;;;;15.77;10.23;;;16.70;99.90;;;;;;12390518;28;20041;-39
2023/06/23 10:27:35;;;;;;;14.93;10.65;;;16.80;99.90;;;;;;12393411;28;20061;-39
2023/06/23 10:33:40;;;;;;;15.35;8.50;;;16.80;99.90;;;;;;12386310;28;20498;-40
2023/06/23 10:39:50;;;;;;;15.02;9.02;;;16.90;99.90;;;;;;12419532;28;20056;-39
2023/06/23 10:45:52;;;;;;;14.38;8.60;;;16.80;99.90;;;;;;12410027;28;21107;-39
2023/06/23 10:51:54;;;;;;;12.95;8.60;;;17.00;99.90;;;;;;12392016;28;20061;-40
2023/06/23 10:58:14;;;;;;;13.52;8.02;;;17.20;99.90;;;;;;12412277;28;20053;-40
2023/06/23 11:04:38;;;;;;;12.20;7.88;;;17.30;99.90;;;;;;12398251;28;20045;-39
2023/06/23 11:10:59;;;;;;;10.63;7.00;;;17.40;99.90;;;;;;12403539;28;20095;-39
2023/06/23 11:17:01;;;;;;;9.40;6.93;;;17.50;99.90;;;;;;12403061;28;20053;-39
2023/06/23 11:23:08;;;;;;;11.25;6.40;;;17.50;99.90;;;;;;12406364;28;20043;-40
2023/06/23 11:29:12;;;;;;;13.35;7.18;;;17.50;99.90;;;;;;12393007;28;20108;-39
2023/06/23 11:35:14;;;;;;;12.57;7.60;;;17.40;99.90;;;;;;12414622;28;20105;-39
2023/06/23 11:41:30;;;;;;;12.23;6.95;;;17.40;99.90;;;;;;12423089;28;20042;-39
2023/06/23 11:47:36;;;;;;;11.63;6.95;;;17.50;99.90;;;;;;12406152;28;20046;-40
2023/06/23 11:53:42;;;;;;;9.98;6.30;;;17.50;99.90;;;;;;12419813;28;20086;-41
2023/06/23 11:59:44;;;;;;;13.32;7.80;;;17.80;99.90;;;;;;12398313;28;20046;-39
2023/06/23 12:05:46;;;;;;;11.30;6.93;;;17.90;99.90;;;;;;12416317;28;20041;-39
2023/06/23 12:11:48;;;;;;;9.90;6.72;;;18.20;99.90;;;;;;12397172;28;20396;-39
2023/06/23 12:17:56;;;;;;;7.47;5.43;;;18.50;99.90;;;;;;12418523;28;20406;-40
2023/06/23 12:23:59;;;;;;;10.88;6.70;;;18.60;99.90;;;;;;12404200;28;20045;-40
2023/06/23 12:30:17;;;;;;;8.27;5.75;;;18.80;99.90;;;;;;12417474;28;20118;-39
2023/06/23 12:36:19;;;;;;;9.32;5.00;;;19.00;99.90;;;;;;12409791;28;20084;-40
2023/06/23 12:42:22;;;;;;;7.18;4.95;;;19.30;99.90;;;;;;12422315;28;20410;-39
2023/06/23 12:48:24;;;;;;;9.73;5.47;;;19.80;99.90;;;;;;12405299;28;20494;-39
2023/06/23 12:54:27;;;;;;;7.38;4.95;;;20.30;99.90;;;;;;12404185;28;20050;-40
2023/06/23 13:00:29;;;;;;;9.47;5.10;;;20.60;99.90;;;;;;12395741;28;20050;-39
2023/06/23 13:06:33;;;;;;;8.45;5.20;;;20.60;99.90;;;;;;12420414;28;20059;-40
2023/06/23 13:12:35;;;;;;;;;;;20.60;99.90;;;;;;12417767;28;20050;-39
2023/06/23 13:18:37;;;;;;;9.35;5.35;;;20.70;99.90;;;;;;12417124;28;20072;-40
2023/06/23 13:24:40;;;;;;;7.00;4.50;;;20.60;99.90;;;;;;12412084;28;20082;-39
2023/06/23 13:30:42;;;;;;;7.30;4.50;;;20.70;99.90;;;;;;12407095;28;20422;-39
2023/06/23 13:36:47;;;;;;;7.53;4.22;;;21.20;99.90;;;;;;12398295;28;20042;-39
2023/06/23 13:42:49;;;;;;;7.30;4.10;;;21.30;99.90;;;;;;12412011;28;20486;-39
2023/06/23 13:48:51;;;;;;;6.38;4.00;;;21.60;99.90;;;;;;12416510;28;20097;-40
2023/06/23 13:54:53;;;;;;;7.47;3.72;;;21.70;99.90;;;;;;12406224;28;20042;-40
2023/06/23 14:00:55;;;;;;;7.88;3.05;;;21.70;99.90;;;;;;12399114;28;20046;-40
2023/06/23 14:06:57;;;;;;;3.78;2.88;;;22.00;99.90;;;;;;12428276;28;20053;-40
2023/06/23 14:12:58;;;;;;;5.40;3.00;;;22.00;99.90;;;;;;12396702;28;20060;-40
2023/06/23 14:19:01;;;;;;;4.30;2.83;;;21.80;99.90;;;;;;12401462;28;20053;-41
2023/06/23 14:25:04;;;;;;;7.60;3.03;;;22.10;99.90;;;;;;12405896;28;20046;-40
2023/06/23 14:31:07;;;;;;;6.00;3.30;;;22.20;99.90;;;;;;12418503;28;20050;-41
2023/06/23 14:37:09;;;;;;;4.82;3.20;;;22.20;99.90;;;;;;12418612;28;20086;-40
2023/06/23 14:43:11;;;;;;;7.18;3.58;;;22.40;99.90;;;;;;12421719;28;20057;-40
2023/06/23 14:49:13;;;;;;;6.82;3.53;;;22.40;99.90;;;;;;12410627;28;20053;-40
2023/06/23 14:55:15;;;;;;;8.30;3.78;;;22.00;99.90;;;;;;12400530;28;20485;-41
2023/06/23 15:01:17;;;;;;;5.30;3.60;;;21.80;99.90;;;;;;12405203;28;20422;-39
2023/06/23 15:07:19;;;;;;;5.03;3.20;;;21.50;99.90;;;;;;12401923;28;20058;-39
2023/06/23 15:13:21;;;;;;;4.60;3.42;;;21.10;99.90;;;;;;12412822;28;20088;-40
2023/06/23 15:19:23;;;;;;;7.85;3.50;;;21.20;99.90;;;;;;12401824;28;20137;-40
2023/06/23 15:25:25;;;;;;;3.53;2.75;;;21.80;99.90;;;;;;12399347;28;20069;-41
2023/06/23 15:31:27;;;;;;;4.45;2.88;;;22.30;99.90;;;;;;12409060;28;20050;-41
2023/06/23 15:37:29;;;;;;;5.95;3.20;;;22.70;99.90;;;;;;12417593;28;20077;-40
2023/06/23 15:43:31;;;;;;;3.95;2.90;;;22.90;99.90;;;;;;12413475;28;20062;-40
2023/06/23 15:49:34;;;;;;;4.93;3.50;;;22.90;99.90;;;;;;12413145;28;20542;-41
2023/06/23 15:55:37;;;;;;;3.97;2.85;;;23.10;99.90;;;;;;12404527;28;20065;-40
2023/06/23 16:01:39;;;;;;;3.70;2.90;;;23.10;99.90;;;;;;12398764;28;20046;-40
2023/06/23 16:07:41;;;;;;;5.50;2.50;;;23.40;99.90;;;;;;12408295;28;20053;-41
2023/06/23 16:13:43;;;;;;;3.25;2.22;;;23.10;99.90;;;;;;12426716;28;20041;-40
2023/06/23 16:19:45;;;;;;;4.20;2.53;;;23.10;99.90;;;;;;12398266;28;20050;-40
2023/06/23 16:25:47;;;;;;;3.67;2.30;;;23.20;99.90;;;;;;12419018;28;20097;-40
2023/06/23 16:31:49;;;;;;;3.45;2.50;;;23.40;99.90;;;;;;12418392;28;20065;-41
2023/06/23 16:37:51;;;;;;;3.47;2.47;;;23.20;99.90;;;;;;12405652;28;20042;-40
2023/06/23 16:43:54;;;;;;;3.65;2.60;;;23.30;99.90;;;;;;12421968;28;20054;-40
2023/06/23 16:49:56;;;;;;;3.77;2.63;;;23.40;99.90;;;;;;12452471;28;20563;-40
2023/06/23 16:56:05;;;;;;;8.30;2.85;;;23.60;99.90;;;;;;12422166;28;20058;-40
2023/06/23 17:02:07;;;;;;;4.22;2.70;;;23.70;99.90;;;;;;12415823;28;20046;-39
2023/06/23 17:08:10;;;;;;;4.78;2.35;;;23.80;99.90;;;;;;12422918;28;20054;-41
2023/06/23 17:14:14;;;;;;;4.97;2.60;;;23.90;99.90;;;;;;12407451;28;20050;-40
2023/06/23 17:20:16;;;;;;;6.88;2.55;;;23.80;99.90;;;;;;12402276;28;20119;-40
2023/06/23 17:26:18;;;;;;;4.93;3.05;;;23.70;99.90;;;;;;12412027;28;20050;-41
2023/06/23 17:32:20;;;;;;;3.15;2.30;;;23.80;99.90;;;;;;12426143;28;20057;-40
2023/06/23 17:38:22;;;;;;;5.07;2.28;;;24.10;99.90;;;;;;12404540;28;20046;-41
2023/06/23 17:44:24;;;;;;;6.22;2.47;;;24.10;99.90;;;;;;12410492;28;20662;-40
2023/06/23 17:50:26;;;;;;;11.03;3.27;;;24.20;99.90;;;;;;12405628;28;20050;-40
2023/06/23 17:56:29;;;;;;;4.85;2.80;;;24.40;99.90;;;;;;12419201;28;20394;-41
2023/06/23 18:02:31;;;;;;;8.37;2.30;;;24.90;99.90;;;;;;12410287;28;20045;-41
2023/06/23 18:08:35;;;;;;;9.20;2.67;;;24.90;99.90;;;;;;12405345;28;20305;-42
2023/06/23 18:14:37;;;;;;;5.18;2.25;;;25.10;99.90;;;;;;12406033;28;20486;-40
2023/06/23 18:20:39;;;;;;;4.85;2.38;;;24.00;99.90;;;;;;12408806;28;20099;-40
2023/06/23 18:26:41;;;;;;;3.58;2.50;;;23.10;99.90;;;;;;12426683;28;20050;-39
2023/06/23 18:32:44;;;;;;;4.60;2.25;;;22.40;99.90;;;;;;12417087;28;20192;-40
2023/06/23 18:38:46;;;;;;;4.68;2.20;;;22.10;99.90;;;;;;12417864;28;20055;-40
2023/06/23 18:44:48;;;;;;;4.30;2.15;;;21.70;99.90;;;;;;12432326;28;20046;-40
2023/06/23 18:50:50;;;;;;;4.97;2.00;;;21.50;99.90;;;;;;12420845;28;20045;-40
2023/06/23 18:56:51;;;;;;;4.10;2.17;;;21.20;99.90;;;;;;12400760;28;20468;-40
2023/06/23 19:02:55;;;;;;;3.75;2.40;;;21.00;99.90;;;;;;12403663;28;20416;-40
2023/06/23 19:08:59;;;;;;;6.00;2.20;;;20.90;99.90;;;;;;12422104;28;20161;-40
2023/06/23 19:15:01;;;;;;;5.22;2.30;;;20.90;99.90;;;;;;12415916;28;20061;-40
2023/06/23 19:21:03;;;;;;;6.70;2.42;;;20.90;99.90;;;;;;12399238;28;20066;-41
2023/06/23 19:27:07;;;;;;;4.25;2.30;;;20.70;99.90;;;;;;12402469;28;20145;-40
2023/06/23 19:33:09;;;;;;;7.30;2.95;;;20.30;99.90;;;;;;12416763;28;20477;-41
2023/06/23 19:39:11;;;;;;;5.20;2.20;;;20.00;99.90;;;;;;12399357;28;20076;-40
2023/06/23 19:45:13;;;;;;;4.88;2.28;;;19.90;99.90;;;;;;12420393;28;20054;-40
2023/06/23 19:51:15;;;;;;;6.03;2.42;;;19.80;99.90;;;;;;12415964;28;20046;-39
2023/06/23 19:57:17;;;;;;;3.63;2.28;;;19.90;99.90;;;;;;12384717;28;20126;-39
2023/06/23 20:03:19;;;;;;;3.90;2.40;;;19.70;99.90;;;;;;12418842;28;20131;-40
2023/06/23 20:09:22;;;;;;;4.80;2.60;;;19.80;99.90;;;;;;12419723;28;20058;-39
2023/06/23 20:15:23;;;;;;;5.28;2.45;;;19.80;99.90;;;;;;12409844;28;20050;-39
2023/06/23 20:21:26;;;;;;;3.70;2.35;;;19.70;99.90;;;;;;12398784;28;20050;-39
2023/06/23 20:27:27;;;;;;;4.75;2.25;;;19.60;99.90;;;;;;12401652;28;20058;-40
2023/06/23 20:33:33;;;;;;;8.48;2.67;;;19.50;99.90;;;;;;12424338;28;20499;-39
2023/06/23 20:39:35;;;;;;;10.27;2.50;;;19.40;99.90;;;;;;12403726;28;20049;-39
2023/06/23 20:45:40;;;;;;;7.43;3.10;;;19.30;99.90;;;;;;12401270;28;20438;-38
2023/06/23 20:51:44;;;;;;;5.13;2.88;;;19.10;99.90;;;;;;12412960;28;20495;-39
2023/06/23 20:57:46;;;;;;;4.72;2.58;;;19.00;99.90;;;;;;12408841;28;20053;-39
2023/06/23 21:03:47;;;;;;;4.38;2.33;;;18.90;99.90;;;;;;12403338;28;20133;-40
2023/06/23 21:09:50;;;;;;;7.68;3.45;;;18.90;99.90;;;;;;12395575;28;20193;-39
2023/06/23 21:15:53;;;;;;;5.60;2.93;;;18.70;99.90;;;;;;12408181;28;20079;-39
2023/06/23 21:21:55;;;;;;;6.22;3.08;;;18.50;99.90;;;;;;12407278;28;20050;-39
2023/06/23 21:27:57;;;;;;;5.18;2.80;;;18.50;99.90;;;;;;12406600;28;20058;-39
2023/06/23 21:33:59;;;;;;;9.05;3.13;;;18.40;99.90;;;;;;12429127;28;20058;-39
2023/06/23 21:40:02;;;;;;;6.80;3.88;;;18.40;99.90;;;;;;12401136;28;20050;-39
2023/06/23 21:46:03;;;;;;;5.82;3.10;;;18.40;99.90;;;;;;12402175;28;20073;-39
2023/06/23 21:52:06;;;;;;;6.47;3.10;;;18.30;99.90;;;;;;12405386;28;20095;-38
2023/06/23 21:58:08;;;;;;;6.63;2.88;;;18.30;99.90;;;;;;12409750;28;20410;-39
2023/06/23 22:04:10;;;;;;;5.50;2.75;;;18.20;99.90;;;;;;12424150;28;20418;-38
2023/06/23 22:10:12;;;;;;;7.35;2.80;;;18.10;99.90;;;;;;12413683;28;20509;-39
2023/06/23 22:16:14;;;;;;;6.82;2.95;;;18.00;99.90;;;;;;12426490;28;20045;-39
2023/06/23 22:22:16;;;;;;;17.83;3.42;;;17.80;99.90;;;;;;12395121;28;20501;-40
2023/06/23 22:28:18;;;;;;;11.05;3.30;;;17.70;99.90;;;;;;12421508;28;20054;-40
2023/06/23 22:34:20;;;;;;;6.13;2.75;;;17.60;99.90;;;;;;12423618;28;20046;-38
2023/06/23 22:40:22;;;;;;;6.80;3.17;;;17.50;99.90;;;;;;12401180;28;20053;-39
2023/06/23 22:46:24;;;;;;;7.22;3.38;;;17.50;99.90;;;;;;12410562;28;20074;-39
2023/06/23 22:52:26;;;;;;;10.50;3.00;;;17.20;99.90;;;;;;12406413;28;20521;-39
2023/06/23 22:58:29;;;;;;;14.23;2.75;;;17.20;99.90;;;;;;12419841;28;20054;-38
2023/06/23 23:04:31;;;;;;;6.18;3.00;;;17.10;99.90;;;;;;12418844;28;20501;-38
2023/06/23 23:10:34;;;;;;;8.82;3.15;;;17.10;99.90;;;;;;12392625;28;20201;-38
2023/06/23 23:16:37;;;;;;;6.05;3.25;;;17.20;99.90;;;;;;12400544;28;20194;-39
2023/06/23 23:22:39;;;;;;;5.38;3.65;;;17.00;99.90;;;;;;12389924;28;20454;-38
2023/06/23 23:28:42;;;;;;;6.10;3.30;;;16.90;99.90;;;;;;12388770;28;20157;-38
2023/06/23 23:34:44;;;;;;;5.22;2.90;;;17.00;99.90;;;;;;12405151;28;20528;-39
2023/06/23 23:40:46;;;;;;;7.07;3.45;;;16.80;99.90;;;;;;12417439;28;20054;-38
2023/06/23 23:46:48;;;;;;;7.80;2.83;;;16.90;99.90;;;;;;12412390;28;20305;-38
2023/06/23 23:52:51;;;;;;;7.20;3.10;;;16.80;99.90;;;;;;12420384;28;20046;-40
2023/06/23 23:58:53;;;;;;;7.43;3.40;;;16.80;99.90;;;;;;12400769;28;20049;-37
